PWSweather.com
Personal Weather Stations
Station Observations
K4FB1
Clubhouse Heritage, Lakeland, FL 33812

Clubhouse HeritageLakeland, FL 33812

Lat: 27.969224, Lon: -81.897769

Elevation: 145

Station Type: Davis Vantage Pro2

http://www.ClubhouseWX.com

High Low Average
Temperature 0.0°F0.0°F 0.0°F0.0°F 0.0°F0.0°F
Dew Point 0.0°F0.0°F 0.0°F0.0°F 0.0°F0.0°F
Winds Calm -Calm - Calm Calm Calm Calm
Wind Gusts -- -- --
Humidity 0% 0% 0%
Pressure 0.00 in0.00 in 0.00 in0.00 in -
Precipitation 0.00 in0.0 mm - -
Hour Temp Dew Point Humidity Winds Wind Gusts Pressure Precip Precip Rate Daily Precip Total
12:00 AM 65.3°F18.5°C 10.1°F-12.2°C 0% 1.0 mph NNE1.6 kmh NNE 4.0 mph6.4 kmh 30.32 in1026.8 mb 0.01 in0.3 mm 0.00 in0.0 mm 0.02 in0.5 mm
12:30 AM 65.4°F18.6°C 10.1°F-12.2°C 0% 1.0 mph N1.6 kmh N 4.0 mph6.4 kmh 30.31 in1026.4 mb 0.01 in0.3 mm 0.00 in0.0 mm 0.02 in0.5 mm
01:00 AM 65.8°F18.8°C 10.1°F-12.2°C 0% 1.0 mph N1.6 kmh N 5.0 mph8.0 kmh 30.31 in1026.4 mb 0.00 in0.0 mm 0.00 in0.0 mm 0.02 in0.5 mm
01:30 AM 66.6°F19.2°C 10.1°F-12.2°C 0% 2.0 mph NNE3.2 kmh NNE 5.0 mph8.0 kmh 30.31 in1026.4 mb 0.01 in0.3 mm 0.02 in0.5 mm 0.01 in0.3 mm
02:00 AM 67.2°F19.6°C 10.1°F-12.2°C 0% 3.0 mph ENE4.8 kmh ENE 8.0 mph12.9 kmh 30.29 in1025.7 mb 0.02 in0.5 mm 0.02 in0.5 mm 0.02 in0.5 mm
02:30 AM 65.8°F18.8°C 10.1°F-12.2°C 0% 2.0 mph N3.2 kmh N 6.0 mph9.7 kmh 30.30 in1026.1 mb 0.01 in0.3 mm 0.00 in0.0 mm 0.02 in0.5 mm
03:00 AM 64.9°F18.3°C 10.1°F-12.2°C 0% 3.0 mph N4.8 kmh N 7.0 mph11.3 kmh 30.29 in1025.7 mb 0.00 in0.0 mm 0.00 in0.0 mm 0.02 in0.5 mm
03:30 AM 64.6°F18.1°C 10.1°F-12.2°C 0% 2.0 mph N3.2 kmh N 5.0 mph8.0 kmh 30.28 in1025.4 mb 0.00 in0.0 mm 0.00 in0.0 mm 0.02 in0.5 mm
04:00 AM 64.9°F18.3°C 10.1°F-12.2°C 0% 1.0 mph NNE1.6 kmh NNE 4.0 mph6.4 kmh 30.28 in1025.4 mb 0.00 in0.0 mm 0.00 in0.0 mm 0.02 in0.5 mm
04:30 AM 65.3°F18.5°C 10.1°F-12.2°C 0% 1.0 mph NNE1.6 kmh NNE 3.0 mph4.8 kmh 30.27 in1025.1 mb 0.04 in1.0 mm 0.08 in2.0 mm 0.06 in1.5 mm
05:00 AM 67.2°F19.6°C 10.1°F-12.2°C 0% 2.0 mph NNE3.2 kmh NNE 9.0 mph14.5 kmh 30.27 in1025.1 mb 0.06 in1.5 mm 0.04 in1.0 mm 0.08 in2.0 mm
05:30 AM 67.1°F19.5°C 10.1°F-12.2°C 0% 4.0 mph ENE6.4 kmh ENE 11.0 mph17.7 kmh 30.27 in1025.1 mb 0.03 in0.8 mm 0.00 in0.0 mm 0.09 in2.3 mm
06:00 AM 67.4°F19.7°C 10.1°F-12.2°C 0% 3.0 mph E4.8 kmh E 9.0 mph14.5 kmh 30.27 in1025.1 mb 0.13 in3.3 mm 0.20 in5.1 mm 0.21 in5.3 mm
06:30 AM 67.4°F19.7°C 10.1°F-12.2°C 0% 1.0 mph ENE1.6 kmh ENE 6.0 mph9.7 kmh 30.27 in1025.1 mb 0.18 in4.6 mm 0.10 in2.5 mm 0.27 in6.9 mm
07:00 AM 67.6°F19.8°C 10.1°F-12.2°C 0% 2.0 mph E3.2 kmh E 6.0 mph9.7 kmh 30.28 in1025.4 mb 0.21 in5.3 mm 0.06 in1.5 mm 0.42 in10.7 mm
07:30 AM 67.4°F19.7°C 10.1°F-12.2°C 0% 2.0 mph NE3.2 kmh NE 4.0 mph6.4 kmh 30.28 in1025.4 mb 0.15 in3.8 mm 0.00 in0.0 mm 0.42 in10.7 mm
08:00 AM 67.3°F19.6°C 10.1°F-12.2°C 0% 2.0 mph ENE3.2 kmh ENE 6.0 mph9.7 kmh 30.29 in1025.7 mb 0.00 in0.0 mm 0.00 in0.0 mm 0.42 in10.7 mm
08:30 AM 67.4°F19.7°C 10.1°F-12.2°C 0% 2.0 mph E3.2 kmh E 8.0 mph12.9 kmh 30.29 in1025.7 mb 0.00 in0.0 mm 0.00 in0.0 mm 0.42 in10.7 mm
09:00 AM 67.7°F19.8°C 10.1°F-12.2°C 0% 2.0 mph ENE3.2 kmh ENE 8.0 mph12.9 kmh 30.29 in1025.7 mb 0.00 in0.0 mm 0.00 in0.0 mm 0.42 in10.7 mm
09:30 AM 68.1°F20.1°C 10.1°F-12.2°C 0% 3.0 mph ENE4.8 kmh ENE 8.0 mph12.9 kmh 30.30 in1026.1 mb 0.00 in0.0 mm 0.00 in0.0 mm 0.42 in10.7 mm
10:00 AM 68.6°F20.3°C 10.1°F-12.2°C 0% 2.0 mph ENE3.2 kmh ENE 9.0 mph14.5 kmh 30.31 in1026.4 mb 0.00 in0.0 mm 0.00 in0.0 mm 0.42 in10.7 mm
10:30 AM 68.6°F20.3°C 10.1°F-12.2°C 0% 4.0 mph E6.4 kmh E 13.0 mph20.9 kmh 30.31 in1026.4 mb 0.00 in0.0 mm 0.00 in0.0 mm 0.42 in10.7 mm
11:00 AM 70.0°F21.1°C 10.1°F-12.2°C 0% 4.0 mph ENE6.4 kmh ENE 11.0 mph17.7 kmh 30.31 in1026.4 mb 0.00 in0.0 mm 0.00 in0.0 mm 0.42 in10.7 mm
11:30 AM 70.8°F21.6°C 10.1°F-12.2°C 0% 5.0 mph ENE8.0 kmh ENE 13.0 mph20.9 kmh 30.31 in1026.4 mb 0.00 in0.0 mm 0.00 in0.0 mm 0.42 in10.7 mm
12:00 PM 72.8°F22.7°C 10.1°F-12.2°C 0% 5.0 mph ENE8.0 kmh ENE 13.0 mph20.9 kmh 30.31 in1026.4 mb 0.00 in0.0 mm 0.00 in0.0 mm 0.42 in10.7 mm
12:30 PM 74.8°F23.8°C 18.7°F-7.4°C 12% 5.0 mph ENE8.0 kmh ENE 15.0 mph24.1 kmh 30.31 in1026.4 mb 0.00 in0.0 mm 0.00 in0.0 mm 0.42 in10.7 mm
01:00 PM 77.4°F25.2°C 51.2°F10.7°C 40% 6.0 mph ENE9.7 kmh ENE 16.0 mph25.7 kmh 30.29 in1025.7 mb 0.00 in0.0 mm 0.00 in0.0 mm 0.42 in10.7 mm
01:30 PM 77.7°F25.4°C 60.8°F16.0°C 56% 5.0 mph ENE8.0 kmh ENE 13.0 mph20.9 kmh 30.27 in1025.1 mb 0.00 in0.0 mm 0.00 in0.0 mm 0.42 in10.7 mm
02:00 PM 78.9°F26.1°C 62.4°F16.9°C 57% 6.0 mph E9.7 kmh E 15.0 mph24.1 kmh 30.26 in1024.7 mb 0.00 in0.0 mm 0.00 in0.0 mm 0.42 in10.7 mm
02:30 PM 79.7°F26.5°C 65.5°F18.6°C 62% 5.0 mph ENE8.0 kmh ENE 14.0 mph22.5 kmh 30.24 in1024.0 mb 0.00 in0.0 mm 0.00 in0.0 mm 0.42 in10.7 mm
03:00 PM 80.7°F27.1°C 67.8°F19.9°C 65% 7.0 mph ENE11.3 kmh ENE 16.0 mph25.7 kmh 30.22 in1023.4 mb 0.00 in0.0 mm 0.00 in0.0 mm 0.42 in10.7 mm
03:30 PM 80.2°F26.8°C 67.8°F19.9°C 66% 6.0 mph E9.7 kmh E 16.0 mph25.7 kmh 30.21 in1023.0 mb 0.00 in0.0 mm 0.00 in0.0 mm 0.42 in10.7 mm
04:00 PM 81.4°F27.4°C 68.5°F20.3°C 65% 7.0 mph ENE11.3 kmh ENE 16.0 mph25.7 kmh 30.20 in1022.7 mb 0.00 in0.0 mm 0.00 in0.0 mm 0.42 in10.7 mm
04:30 PM 78.5°F25.8°C 66.6°F19.2°C 67% 5.0 mph E8.0 kmh E 13.0 mph20.9 kmh 30.20 in1022.7 mb 0.00 in0.0 mm 0.00 in0.0 mm 0.42 in10.7 mm
05:00 PM 77.8°F25.4°C 66.4°F19.1°C 68% 5.0 mph ENE8.0 kmh ENE 13.0 mph20.9 kmh 30.20 in1022.7 mb 0.00 in0.0 mm 0.00 in0.0 mm 0.42 in10.7 mm
05:30 PM 80.1°F26.7°C 68.2°F20.1°C 67% 4.0 mph E6.4 kmh E 15.0 mph24.1 kmh 30.19 in1022.4 mb 0.00 in0.0 mm 0.00 in0.0 mm 0.42 in10.7 mm
06:00 PM 80.0°F26.7°C 67.6°F19.8°C 66% 6.0 mph ENE9.7 kmh ENE 16.0 mph25.7 kmh 30.19 in1022.4 mb 0.00 in0.0 mm 0.00 in0.0 mm 0.42 in10.7 mm
06:30 PM 78.8°F26.0°C 66.9°F19.4°C 67% 5.0 mph ENE8.0 kmh ENE 13.0 mph20.9 kmh 30.19 in1022.4 mb 0.00 in0.0 mm 0.00 in0.0 mm 0.42 in10.7 mm
07:00 PM 77.1°F25.1°C 65.7°F18.7°C 68% 5.0 mph ENE8.0 kmh ENE 16.0 mph25.7 kmh 30.19 in1022.4 mb 0.00 in0.0 mm 0.00 in0.0 mm 0.42 in10.7 mm
07:30 PM 74.5°F23.6°C 62.8°F17.1°C 67% 4.0 mph E6.4 kmh E 12.0 mph19.3 kmh 30.19 in1022.4 mb 0.00 in0.0 mm 0.00 in0.0 mm 0.42 in10.7 mm
08:00 PM 73.0°F22.8°C 59.7°F15.4°C 63% 3.0 mph E4.8 kmh E 9.0 mph14.5 kmh 30.19 in1022.4 mb 0.00 in0.0 mm 0.00 in0.0 mm 0.42 in10.7 mm
08:30 PM 72.1°F22.3°C 54.5°F12.5°C 54% 3.0 mph E4.8 kmh E 10.0 mph16.1 kmh 30.20 in1022.7 mb 0.00 in0.0 mm 0.00 in0.0 mm 0.42 in10.7 mm
09:00 PM 71.2°F21.8°C 45.6°F7.6°C 40% 3.0 mph E4.8 kmh E 10.0 mph16.1 kmh 30.20 in1022.7 mb 0.00 in0.0 mm 0.00 in0.0 mm 0.42 in10.7 mm
09:30 PM 70.2°F21.2°C 36.4°F2.4°C 29% 3.0 mph E4.8 kmh E 9.0 mph14.5 kmh 30.21 in1023.0 mb 0.00 in0.0 mm 0.00 in0.0 mm 0.42 in10.7 mm
10:00 PM 69.5°F20.8°C 27.8°F-2.3°C 21% 3.0 mph ESE4.8 kmh ESE 9.0 mph14.5 kmh 30.21 in1023.0 mb 0.00 in0.0 mm 0.00 in0.0 mm 0.42 in10.7 mm
10:30 PM 68.6°F20.3°C 13.9°F-10.1°C 12% 3.0 mph ESE4.8 kmh ESE 9.0 mph14.5 kmh 30.22 in1023.4 mb 0.00 in0.0 mm 0.00 in0.0 mm 0.42 in10.7 mm
11:00 PM 67.7°F19.8°C -36.6°F-38.1°C 1% 2.0 mph ESE3.2 kmh ESE 5.0 mph8.0 kmh 30.22 in1023.4 mb 0.00 in0.0 mm 0.00 in0.0 mm 0.42 in10.7 mm
11:30 PM 66.9°F19.4°C -36.6°F-38.1°C 0% 1.0 mph ESE1.6 kmh ESE 4.0 mph6.4 kmh 30.21 in1023.0 mb 0.00 in0.0 mm 0.00 in0.0 mm 0.42 in10.7 mm